sensor_id;sensor_type;location;lat;lon;timestamp;P1;P2;P0
44933;PMS3003;30667;43.614;1.442;2023-07-24T00:02:06;11.75;11.00;5.00
44933;PMS3003;30667;43.614;1.442;2023-07-24T00:04:32;16.00;13.00;6.00
44933;PMS3003;30667;43.614;1.442;2023-07-24T00:06:58;14.40;12.40;7.40
44933;PMS3003;30667;43.614;1.442;2023-07-24T00:09:24;11.60;11.00;6.00
44933;PMS3003;30667;43.614;1.442;2023-07-24T00:11:50;11.75;11.50;6.00
44933;PMS3003;30667;43.614;1.442;2023-07-24T00:14:15;11.00;10.75;6.75
44933;PMS3003;30667;43.614;1.442;2023-07-24T00:16:41;14.40;12.20;6.40
44933;PMS3003;30667;43.614;1.442;2023-07-24T00:19:06;10.75;10.75;6.50
44933;PMS3003;30667;43.614;1.442;2023-07-24T00:21:32;12.00;11.75;7.00
44933;PMS3003;30667;43.614;1.442;2023-07-24T00:23:57;11.00;11.00;6.50
44933;PMS3003;30667;43.614;1.442;2023-07-24T00:26:23;11.00;10.00;6.00
44933;PMS3003;30667;43.614;1.442;2023-07-24T00:28:48;12.25;11.75;6.25
44933;PMS3003;30667;43.614;1.442;2023-07-24T00:31:13;11.25;10.25;5.50
44933;PMS3003;30667;43.614;1.442;2023-07-24T00:33:39;13.25;12.75;7.00
44933;PMS3003;30667;43.614;1.442;2023-07-24T00:36:04;12.75;12.00;7.25
44933;PMS3003;30667;43.614;1.442;2023-07-24T00:38:30;14.75;13.00;7.50
44933;PMS3003;30667;43.614;1.442;2023-07-24T00:40:55;14.00;12.00;6.25
44933;PMS3003;30667;43.614;1.442;2023-07-24T00:43:21;10.25;10.25;6.50
44933;PMS3003;30667;43.614;1.442;2023-07-24T00:45:46;12.25;11.75;7.00
44933;PMS3003;30667;43.614;1.442;2023-07-24T00:48:12;14.00;13.20;8.00
44933;PMS3003;30667;43.614;1.442;2023-07-24T00:50:38;12.00;12.00;5.50
44933;PMS3003;30667;43.614;1.442;2023-07-24T00:53:04;13.60;12.80;7.40
44933;PMS3003;30667;43.614;1.442;2023-07-24T00:55:29;14.25;12.75;7.75
44933;PMS3003;30667;43.614;1.442;2023-07-24T00:57:56;15.20;13.00;7.00
44933;PMS3003;30667;43.614;1.442;2023-07-24T01:00:23;14.60;13.80;6.80
44933;PMS3003;30667;43.614;1.442;2023-07-24T01:02:49;11.25;11.00;7.00
44933;PMS3003;30667;43.614;1.442;2023-07-24T01:05:14;13.00;11.80;8.00
44933;PMS3003;30667;43.614;1.442;2023-07-24T01:07:41;13.80;13.00;7.20
44933;PMS3003;30667;43.614;1.442;2023-07-24T01:10:07;13.25;11.25;6.75
44933;PMS3003;30667;43.614;1.442;2023-07-24T01:12:36;13.25;12.00;6.75
44933;PMS3003;30667;43.614;1.442;2023-07-24T01:15:10;13.20;12.40;7.20
44933;PMS3003;30667;43.614;1.442;2023-07-24T01:17:52;12.40;10.80;6.00
44933;PMS3003;30667;43.614;1.442;2023-07-24T01:20:23;13.60;11.60;6.20
44933;PMS3003;30667;43.614;1.442;2023-07-24T01:25:34;11.60;11.20;6.60
44933;PMS3003;30667;43.614;1.442;2023-07-24T01:28:01;12.20;12.00;7.60
44933;PMS3003;30667;43.614;1.442;2023-07-24T01:30:31;13.00;12.20;7.00
44933;PMS3003;30667;43.614;1.442;2023-07-24T01:32:57;12.75;12.75;7.50
44933;PMS3003;30667;43.614;1.442;2023-07-24T01:35:22;12.25;11.00;6.00
44933;PMS3003;30667;43.614;1.442;2023-07-24T01:37:49;9.60;9.60;5.20
44933;PMS3003;30667;43.614;1.442;2023-07-24T01:40:15;11.40;10.20;5.20
44933;PMS3003;30667;43.614;1.442;2023-07-24T01:42:42;9.80;9.80;5.60
44933;PMS3003;30667;43.614;1.442;2023-07-24T01:45:08;12.60;10.00;5.00
44933;PMS3003;30667;43.614;1.442;2023-07-24T01:47:34;11.00;11.00;6.75
44933;PMS3003;30667;43.614;1.442;2023-07-24T01:49:59;12.25;12.00;6.50
44933;PMS3003;30667;43.614;1.442;2023-07-24T01:52:25;11.00;10.50;6.00
44933;PMS3003;30667;43.614;1.442;2023-07-24T01:54:51;9.40;9.40;5.60
44933;PMS3003;30667;43.614;1.442;2023-07-24T01:57:16;10.25;10.00;5.00
44933;PMS3003;30667;43.614;1.442;2023-07-24T01:59:41;10.00;10.00;6.00
44933;PMS3003;30667;43.614;1.442;2023-07-24T02:02:07;13.00;12.50;8.00
44933;PMS3003;30667;43.614;1.442;2023-07-24T02:04:32;12.00;11.00;7.00
44933;PMS3003;30667;43.614;1.442;2023-07-24T02:06:58;14.25;12.25;7.75
44933;PMS3003;30667;43.614;1.442;2023-07-24T02:09:23;13.25;12.25;8.00
44933;PMS3003;30667;43.614;1.442;2023-07-24T02:11:48;15.75;15.50;9.25
44933;PMS3003;30667;43.614;1.442;2023-07-24T02:14:14;15.00;13.75;9.00
44933;PMS3003;30667;43.614;1.442;2023-07-24T02:16:41;15.40;13.40;8.80
44933;PMS3003;30667;43.614;1.442;2023-07-24T02:19:07;13.75;13.00;7.75
44933;PMS3003;30667;43.614;1.442;2023-07-24T02:21:32;13.25;13.25;9.00
44933;PMS3003;30667;43.614;1.442;2023-07-24T02:23:57;15.25;13.75;9.00
44933;PMS3003;30667;43.614;1.442;2023-07-24T02:26:23;15.00;14.00;9.75
44933;PMS3003;30667;43.614;1.442;2023-07-24T02:28:48;14.50;13.75;8.50
44933;PMS3003;30667;43.614;1.442;2023-07-24T02:31:14;14.50;13.50;7.50
44933;PMS3003;30667;43.614;1.442;2023-07-24T02:33:39;14.00;13.50;8.00
44933;PMS3003;30667;43.614;1.442;2023-07-24T02:36:04;15.75;13.75;8.25
44933;PMS3003;30667;43.614;1.442;2023-07-24T02:38:30;14.75;14.50;9.50
44933;PMS3003;30667;43.614;1.442;2023-07-24T02:40:55;14.25;13.00;7.00
44933;PMS3003;30667;43.614;1.442;2023-07-24T02:43:21;17.00;16.00;9.00
44933;PMS3003;30667;43.614;1.442;2023-07-24T02:45:46;12.50;12.50;7.25
44933;PMS3003;30667;43.614;1.442;2023-07-24T02:48:12;15.25;14.00;8.00
44933;PMS3003;30667;43.614;1.442;2023-07-24T02:50:37;10.75;10.75;7.00
44933;PMS3003;30667;43.614;1.442;2023-07-24T02:53:02;12.75;12.75;8.00
44933;PMS3003;30667;43.614;1.442;2023-07-24T02:55:28;13.50;12.25;6.75
44933;PMS3003;30667;43.614;1.442;2023-07-24T02:57:53;14.75;12.00;7.00
44933;PMS3003;30667;43.614;1.442;2023-07-24T03:00:19;13.00;11.00;7.50
44933;PMS3003;30667;43.614;1.442;2023-07-24T03:02:44;10.25;10.00;6.75
44933;PMS3003;30667;43.614;1.442;2023-07-24T03:05:09;11.50;11.00;7.00
44933;PMS3003;30667;43.614;1.442;2023-07-24T03:07:35;12.00;11.25;6.50
44933;PMS3003;30667;43.614;1.442;2023-07-24T03:10:01;13.00;11.75;7.00
44933;PMS3003;30667;43.614;1.442;2023-07-24T03:12:26;11.20;10.80;7.00
44933;PMS3003;30667;43.614;1.442;2023-07-24T03:14:52;12.00;12.00;7.00
44933;PMS3003;30667;43.614;1.442;2023-07-24T03:17:17;13.25;11.25;6.25
44933;PMS3003;30667;43.614;1.442;2023-07-24T03:19:42;13.00;12.75;6.25
44933;PMS3003;30667;43.614;1.442;2023-07-24T03:22:08;11.25;11.25;7.00
44933;PMS3003;30667;43.614;1.442;2023-07-24T03:24:33;10.75;10.00;5.25
44933;PMS3003;30667;43.614;1.442;2023-07-24T03:27:00;12.60;11.00;6.60
44933;PMS3003;30667;43.614;1.442;2023-07-24T03:29:26;12.40;11.00;6.00
44933;PMS3003;30667;43.614;1.442;2023-07-24T03:31:52;12.20;10.80;6.00
44933;PMS3003;30667;43.614;1.442;2023-07-24T03:34:17;12.50;10.75;6.00
44933;PMS3003;30667;43.614;1.442;2023-07-24T03:36:43;12.75;12.25;7.50
44933;PMS3003;30667;43.614;1.442;2023-07-24T03:39:11;13.25;11.00;6.00
44933;PMS3003;30667;43.614;1.442;2023-07-24T03:41:37;12.80;11.80;6.80
44933;PMS3003;30667;43.614;1.442;2023-07-24T03:44:03;12.20;10.40;5.60
44933;PMS3003;30667;43.614;1.442;2023-07-24T03:46:29;9.00;8.00;4.50
44933;PMS3003;30667;43.614;1.442;2023-07-24T03:48:54;9.50;8.75;5.00
44933;PMS3003;30667;43.614;1.442;2023-07-24T03:51:20;10.00;9.00;5.00
44933;PMS3003;30667;43.614;1.442;2023-07-24T03:53:45;9.50;9.25;4.50
44933;PMS3003;30667;43.614;1.442;2023-07-24T03:56:11;9.00;8.20;4.40
44933;PMS3003;30667;43.614;1.442;2023-07-24T03:58:37;8.75;8.75;4.50
44933;PMS3003;30667;43.614;1.442;2023-07-24T04:01:03;9.60;9.40;5.00
44933;PMS3003;30667;43.614;1.442;2023-07-24T04:03:29;11.00;9.00;5.25
44933;PMS3003;30667;43.614;1.442;2023-07-24T04:05:54;10.25;9.25;6.00
44933;PMS3003;30667;43.614;1.442;2023-07-24T04:08:20;11.00;10.00;5.25
44933;PMS3003;30667;43.614;1.442;2023-07-24T04:10:45;11.25;10.00;5.25
44933;PMS3003;30667;43.614;1.442;2023-07-24T04:13:10;10.00;9.00;5.00
44933;PMS3003;30667;43.614;1.442;2023-07-24T04:15:36;11.00;11.00;6.00
44933;PMS3003;30667;43.614;1.442;2023-07-24T04:18:01;10.75;8.00;4.00
44933;PMS3003;30667;43.614;1.442;2023-07-24T04:20:27;8.25;8.25;4.75
44933;PMS3003;30667;43.614;1.442;2023-07-24T04:22:52;8.75;8.75;4.00
44933;PMS3003;30667;43.614;1.442;2023-07-24T04:25:18;9.25;8.75;4.50
44933;PMS3003;30667;43.614;1.442;2023-07-24T04:27:43;10.25;9.75;5.00
44933;PMS3003;30667;43.614;1.442;2023-07-24T04:30:09;9.75;9.00;5.00
44933;PMS3003;30667;43.614;1.442;2023-07-24T04:32:35;10.50;9.00;5.00
44933;PMS3003;30667;43.614;1.442;2023-07-24T04:35:00;10.00;9.00;5.25
44933;PMS3003;30667;43.614;1.442;2023-07-24T04:37:26;9.50;9.25;5.50
44933;PMS3003;30667;43.614;1.442;2023-07-24T04:39:51;9.50;8.25;4.75
44933;PMS3003;30667;43.614;1.442;2023-07-24T04:42:16;10.00;9.75;5.75
44933;PMS3003;30667;43.614;1.442;2023-07-24T04:44:42;10.25;10.00;5.75
44933;PMS3003;30667;43.614;1.442;2023-07-24T04:47:07;11.75;10.50;6.25
44933;PMS3003;30667;43.614;1.442;2023-07-24T04:49:32;10.75;10.00;6.00
44933;PMS3003;30667;43.614;1.442;2023-07-24T04:51:58;9.00;8.50;5.00
44933;PMS3003;30667;43.614;1.442;2023-07-24T04:54:24;11.40;10.60;5.20
44933;PMS3003;30667;43.614;1.442;2023-07-24T04:56:50;9.25;8.75;5.25
44933;PMS3003;30667;43.614;1.442;2023-07-24T04:59:15;11.25;11.00;6.00
44933;PMS3003;30667;43.614;1.442;2023-07-24T05:01:41;10.25;10.25;6.25
44933;PMS3003;30667;43.614;1.442;2023-07-24T05:04:06;10.00;10.00;5.75
44933;PMS3003;30667;43.614;1.442;2023-07-24T05:06:31;9.00;8.75;4.00
44933;PMS3003;30667;43.614;1.442;2023-07-24T05:08:57;9.50;9.50;6.00
44933;PMS3003;30667;43.614;1.442;2023-07-24T05:11:22;9.75;8.75;4.75
44933;PMS3003;30667;43.614;1.442;2023-07-24T05:13:47;9.00;9.00;4.75
44933;PMS3003;30667;43.614;1.442;2023-07-24T05:16:13;9.50;7.75;5.00
44933;PMS3003;30667;43.614;1.442;2023-07-24T05:18:38;10.00;9.25;5.25
44933;PMS3003;30667;43.614;1.442;2023-07-24T05:21:04;8.50;8.00;4.25
44933;PMS3003;30667;43.614;1.442;2023-07-24T05:23:29;9.00;9.00;4.25
44933;PMS3003;30667;43.614;1.442;2023-07-24T05:26:01;9.50;8.50;4.50
44933;PMS3003;30667;43.614;1.442;2023-07-24T05:28:28;8.80;7.80;5.00
44933;PMS3003;30667;43.614;1.442;2023-07-24T05:30:55;10.00;8.80;4.00
44933;PMS3003;30667;43.614;1.442;2023-07-24T05:33:21;10.40;8.60;4.00
44933;PMS3003;30667;43.614;1.442;2023-07-24T05:35:48;10.50;10.00;4.50
44933;PMS3003;30667;43.614;1.442;2023-07-24T05:38:13;11.60;9.80;5.00
44933;PMS3003;30667;43.614;1.442;2023-07-24T05:40:39;8.25;8.00;5.00
44933;PMS3003;30667;43.614;1.442;2023-07-24T05:43:04;10.00;8.50;4.50
44933;PMS3003;30667;43.614;1.442;2023-07-24T05:45:29;9.50;8.75;5.00
44933;PMS3003;30667;43.614;1.442;2023-07-24T05:47:55;9.75;9.75;5.50
44933;PMS3003;30667;43.614;1.442;2023-07-24T05:50:20;8.00;8.00;4.25
44933;PMS3003;30667;43.614;1.442;2023-07-24T05:52:46;7.50;7.50;5.00
44933;PMS3003;30667;43.614;1.442;2023-07-24T05:55:11;8.25;8.25;5.25
44933;PMS3003;30667;43.614;1.442;2023-07-24T05:57:36;9.00;9.00;5.00
44933;PMS3003;30667;43.614;1.442;2023-07-24T06:00:05;8.75;8.75;5.00
44933;PMS3003;30667;43.614;1.442;2023-07-24T06:02:31;9.00;8.80;5.00
44933;PMS3003;30667;43.614;1.442;2023-07-24T06:04:57;9.25;9.25;5.00
44933;PMS3003;30667;43.614;1.442;2023-07-24T06:07:22;10.00;9.25;5.00
44933;PMS3003;30667;43.614;1.442;2023-07-24T06:09:48;9.75;9.50;4.00
44933;PMS3003;30667;43.614;1.442;2023-07-24T06:12:14;9.60;9.60;4.40
44933;PMS3003;30667;43.614;1.442;2023-07-24T06:14:40;9.25;9.25;5.25
44933;PMS3003;30667;43.614;1.442;2023-07-24T06:17:05;9.25;8.50;5.00
44933;PMS3003;30667;43.614;1.442;2023-07-24T06:19:31;8.60;8.60;5.00
44933;PMS3003;30667;43.614;1.442;2023-07-24T06:21:56;9.25;9.00;5.50
44933;PMS3003;30667;43.614;1.442;2023-07-24T06:24:22;8.75;8.00;3.25
44933;PMS3003;30667;43.614;1.442;2023-07-24T06:26:48;8.20;8.20;4.80
44933;PMS3003;30667;43.614;1.442;2023-07-24T06:29:14;9.00;9.00;5.80
44933;PMS3003;30667;43.614;1.442;2023-07-24T06:31:40;13.75;11.50;5.50
44933;PMS3003;30667;43.614;1.442;2023-07-24T06:34:05;8.25;8.25;4.75
44933;PMS3003;30667;43.614;1.442;2023-07-24T06:36:30;8.50;8.50;4.25
44933;PMS3003;30667;43.614;1.442;2023-07-24T06:38:56;10.00;9.50;5.00
44933;PMS3003;30667;43.614;1.442;2023-07-24T06:41:21;9.00;9.00;4.00
44933;PMS3003;30667;43.614;1.442;2023-07-24T06:43:48;8.20;8.20;4.20
44933;PMS3003;30667;43.614;1.442;2023-07-24T06:46:13;8.75;8.00;4.00
44933;PMS3003;30667;43.614;1.442;2023-07-24T06:48:39;9.00;9.00;5.00
44933;PMS3003;30667;43.614;1.442;2023-07-24T06:51:04;9.00;8.75;5.00
44933;PMS3003;30667;43.614;1.442;2023-07-24T06:53:29;8.50;8.50;5.00
44933;PMS3003;30667;43.614;1.442;2023-07-24T06:55:55;8.25;8.25;5.00
44933;PMS3003;30667;43.614;1.442;2023-07-24T06:58:20;9.25;9.00;5.00
44933;PMS3003;30667;43.614;1.442;2023-07-24T07:00:46;8.50;8.50;4.50
44933;PMS3003;30667;43.614;1.442;2023-07-24T07:03:11;9.00;8.00;4.00
44933;PMS3003;30667;43.614;1.442;2023-07-24T07:05:36;9.75;9.00;5.00
44933;PMS3003;30667;43.614;1.442;2023-07-24T07:08:02;8.50;8.25;4.00
44933;PMS3003;30667;43.614;1.442;2023-07-24T07:10:27;10.00;8.75;5.00
44933;PMS3003;30667;43.614;1.442;2023-07-24T07:12:53;8.50;8.00;4.75
44933;PMS3003;30667;43.614;1.442;2023-07-24T07:15:18;9.00;8.50;5.00
44933;PMS3003;30667;43.614;1.442;2023-07-24T07:17:43;8.00;7.50;4.00
44933;PMS3003;30667;43.614;1.442;2023-07-24T07:20:09;9.00;8.75;5.00
44933;PMS3003;30667;43.614;1.442;2023-07-24T07:22:34;7.25;7.25;4.00
44933;PMS3003;30667;43.614;1.442;2023-07-24T07:25:00;8.00;8.00;4.00
44933;PMS3003;30667;43.614;1.442;2023-07-24T07:27:25;8.50;8.50;4.25
44933;PMS3003;30667;43.614;1.442;2023-07-24T07:29:50;8.75;8.00;4.50
44933;PMS3003;30667;43.614;1.442;2023-07-24T07:32:16;8.00;8.00;5.00
44933;PMS3003;30667;43.614;1.442;2023-07-24T07:34:41;8.00;8.00;4.00
44933;PMS3003;30667;43.614;1.442;2023-07-24T07:37:06;9.00;9.00;4.00
44933;PMS3003;30667;43.614;1.442;2023-07-24T07:39:32;8.75;8.00;4.00
44933;PMS3003;30667;43.614;1.442;2023-07-24T07:41:57;9.50;9.50;5.00
44933;PMS3003;30667;43.614;1.442;2023-07-24T07:44:23;9.25;8.50;5.50
44933;PMS3003;30667;43.614;1.442;2023-07-24T07:46:48;9.75;7.50;4.00
44933;PMS3003;30667;43.614;1.442;2023-07-24T07:49:14;9.00;8.00;4.50
44933;PMS3003;30667;43.614;1.442;2023-07-24T07:51:39;8.25;7.75;4.75
44933;PMS3003;30667;43.614;1.442;2023-07-24T07:54:05;10.00;9.00;5.00
44933;PMS3003;30667;43.614;1.442;2023-07-24T07:56:30;7.50;7.50;4.50
44933;PMS3003;30667;43.614;1.442;2023-07-24T07:58:56;10.40;9.60;4.80
44933;PMS3003;30667;43.614;1.442;2023-07-24T08:01:21;8.00;8.00;5.00
44933;PMS3003;30667;43.614;1.442;2023-07-24T08:03:47;8.75;8.75;5.00
44933;PMS3003;30667;43.614;1.442;2023-07-24T08:06:12;10.50;9.50;5.00
44933;PMS3003;30667;43.614;1.442;2023-07-24T08:08:38;10.75;9.25;5.50
44933;PMS3003;30667;43.614;1.442;2023-07-24T08:11:06;10.00;9.75;4.75
44933;PMS3003;30667;43.614;1.442;2023-07-24T08:13:32;8.80;8.80;5.00
44933;PMS3003;30667;43.614;1.442;2023-07-24T08:15:58;9.20;8.80;4.60
44933;PMS3003;30667;43.614;1.442;2023-07-24T08:18:24;8.40;8.40;5.00
44933;PMS3003;30667;43.614;1.442;2023-07-24T08:20:50;9.60;8.40;4.20
44933;PMS3003;30667;43.614;1.442;2023-07-24T08:23:16;8.25;7.50;3.50
44933;PMS3003;30667;43.614;1.442;2023-07-24T08:25:50;10.25;10.00;4.00
44933;PMS3003;30667;43.614;1.442;2023-07-24T08:28:16;11.20;9.80;5.40
44933;PMS3003;30667;43.614;1.442;2023-07-24T08:30:41;8.00;8.00;4.00
44933;PMS3003;30667;43.614;1.442;2023-07-24T08:33:07;8.75;8.75;5.00
44933;PMS3003;30667;43.614;1.442;2023-07-24T08:35:32;9.00;8.00;4.00
44933;PMS3003;30667;43.614;1.442;2023-07-24T08:37:57;7.50;7.00;3.25
44933;PMS3003;30667;43.614;1.442;2023-07-24T08:40:23;8.25;8.25;5.25
44933;PMS3003;30667;43.614;1.442;2023-07-24T08:42:49;7.00;7.00;5.00
44933;PMS3003;30667;43.614;1.442;2023-07-24T08:45:15;9.00;8.40;5.00
44933;PMS3003;30667;43.614;1.442;2023-07-24T08:47:41;12.20;10.20;5.80
44933;PMS3003;30667;43.614;1.442;2023-07-24T08:50:09;9.60;9.60;5.00
44933;PMS3003;30667;43.614;1.442;2023-07-24T08:52:36;8.00;7.80;3.00
44933;PMS3003;30667;43.614;1.442;2023-07-24T08:55:02;9.00;8.20;3.80
44933;PMS3003;30667;43.614;1.442;2023-07-24T08:57:30;8.80;7.80;3.80
44933;PMS3003;30667;43.614;1.442;2023-07-24T08:59:55;7.00;7.00;3.50
44933;PMS3003;30667;43.614;1.442;2023-07-24T09:02:21;9.00;8.00;4.00
44933;PMS3003;30667;43.614;1.442;2023-07-24T09:04:46;6.75;6.75;2.00
44933;PMS3003;30667;43.614;1.442;2023-07-24T09:07:11;5.25;5.25;2.25
44933;PMS3003;30667;43.614;1.442;2023-07-24T09:09:39;6.80;6.80;3.20
44933;PMS3003;30667;43.614;1.442;2023-07-24T09:12:05;7.40;7.00;3.20
44933;PMS3003;30667;43.614;1.442;2023-07-24T09:14:31;5.25;5.25;2.00
44933;PMS3003;30667;43.614;1.442;2023-07-24T09:19:33;7.00;6.60;2.80
44933;PMS3003;30667;43.614;1.442;2023-07-24T09:24:35;6.20;6.20;3.00
44933;PMS3003;30667;43.614;1.442;2023-07-24T09:27:00;6.00;5.00;2.75
44933;PMS3003;30667;43.614;1.442;2023-07-24T09:29:31;5.80;5.60;2.80
44933;PMS3003;30667;43.614;1.442;2023-07-24T09:31:57;5.80;5.80;2.40
44933;PMS3003;30667;43.614;1.442;2023-07-24T09:34:23;7.80;5.60;2.60
44933;PMS3003;30667;43.614;1.442;2023-07-24T09:36:50;5.00;5.00;2.20
44933;PMS3003;30667;43.614;1.442;2023-07-24T09:39:22;6.00;6.00;2.75
44933;PMS3003;30667;43.614;1.442;2023-07-24T09:41:48;7.60;7.60;3.20
44933;PMS3003;30667;43.614;1.442;2023-07-24T09:44:14;6.80;6.60;3.00
44933;PMS3003;30667;43.614;1.442;2023-07-24T09:46:40;6.25;6.00;2.75
44933;PMS3003;30667;43.614;1.442;2023-07-24T09:49:08;6.20;6.20;3.40
44933;PMS3003;30667;43.614;1.442;2023-07-24T09:51:34;7.25;6.00;3.00
44933;PMS3003;30667;43.614;1.442;2023-07-24T09:54:13;6.20;5.60;1.60
44933;PMS3003;30667;43.614;1.442;2023-07-24T09:56:45;6.60;6.40;3.80
44933;PMS3003;30667;43.614;1.442;2023-07-24T09:59:12;8.20;7.00;4.00
44933;PMS3003;30667;43.614;1.442;2023-07-24T10:01:38;7.20;7.20;3.00
44933;PMS3003;30667;43.614;1.442;2023-07-24T10:04:04;5.80;5.60;2.00
44933;PMS3003;30667;43.614;1.442;2023-07-24T10:06:30;5.80;5.80;2.20
44933;PMS3003;30667;43.614;1.442;2023-07-24T10:08:57;6.00;6.00;2.80
44933;PMS3003;30667;43.614;1.442;2023-07-24T10:11:23;6.20;5.40;3.00
44933;PMS3003;30667;43.614;1.442;2023-07-24T10:13:50;6.60;6.00;2.80
44933;PMS3003;30667;43.614;1.442;2023-07-24T10:16:15;6.00;6.00;3.25
44933;PMS3003;30667;43.614;1.442;2023-07-24T10:18:42;7.00;5.50;3.00
44933;PMS3003;30667;43.614;1.442;2023-07-24T10:21:10;8.80;7.60;3.00
44933;PMS3003;30667;43.614;1.442;2023-07-24T10:23:37;7.20;7.20;3.40
44933;PMS3003;30667;43.614;1.442;2023-07-24T10:26:06;6.80;6.80;3.40
44933;PMS3003;30667;43.614;1.442;2023-07-24T10:28:33;6.00;5.20;2.40
44933;PMS3003;30667;43.614;1.442;2023-07-24T10:31:03;9.20;8.00;4.60
44933;PMS3003;30667;43.614;1.442;2023-07-24T10:33:33;9.60;9.40;5.00
44933;PMS3003;30667;43.614;1.442;2023-07-24T10:36:07;7.80;7.80;3.00
44933;PMS3003;30667;43.614;1.442;2023-07-24T10:38:35;9.00;7.00;2.80
44933;PMS3003;30667;43.614;1.442;2023-07-24T10:41:03;6.00;6.00;2.80
44933;PMS3003;30667;43.614;1.442;2023-07-24T10:43:39;6.00;5.80;3.00
44933;PMS3003;30667;43.614;1.442;2023-07-24T10:46:08;5.80;5.00;1.80
44933;PMS3003;30667;43.614;1.442;2023-07-24T10:48:34;7.00;6.00;2.00
44933;PMS3003;30667;43.614;1.442;2023-07-24T10:51:05;5.25;5.25;2.00
44933;PMS3003;30667;43.614;1.442;2023-07-24T10:53:34;6.60;6.00;2.20
44933;PMS3003;30667;43.614;1.442;2023-07-24T10:56:00;4.80;4.00;1.00
44933;PMS3003;30667;43.614;1.442;2023-07-24T10:58:26;7.00;6.00;2.00
44933;PMS3003;30667;43.614;1.442;2023-07-24T11:00:52;5.20;5.00;1.40
44933;PMS3003;30667;43.614;1.442;2023-07-24T11:03:17;6.50;6.00;2.50
44933;PMS3003;30667;43.614;1.442;2023-07-24T11:05:43;7.00;5.25;2.00
44933;PMS3003;30667;43.614;1.442;2023-07-24T11:08:16;4.80;4.80;2.00
44933;PMS3003;30667;43.614;1.442;2023-07-24T11:10:50;4.00;4.00;2.00
44933;PMS3003;30667;43.614;1.442;2023-07-24T11:13:18;7.20;7.00;2.00
44933;PMS3003;30667;43.614;1.442;2023-07-24T11:15:45;7.00;5.80;2.00
44933;PMS3003;30667;43.614;1.442;2023-07-24T11:18:11;4.60;4.60;2.60
44933;PMS3003;30667;43.614;1.442;2023-07-24T11:20:38;5.60;5.60;2.00
44933;PMS3003;30667;43.614;1.442;2023-07-24T11:23:08;5.00;5.00;2.00
44933;PMS3003;30667;43.614;1.442;2023-07-24T11:25:35;7.60;5.40;2.00
44933;PMS3003;30667;43.614;1.442;2023-07-24T11:28:00;6.00;6.00;1.50
44933;PMS3003;30667;43.614;1.442;2023-07-24T11:30:25;5.25;5.00;2.00
44933;PMS3003;30667;43.614;1.442;2023-07-24T11:32:51;5.25;5.00;2.00
44933;PMS3003;30667;43.614;1.442;2023-07-24T11:35:16;5.00;4.00;1.00
44933;PMS3003;30667;43.614;1.442;2023-07-24T11:37:42;6.00;5.00;1.75
44933;PMS3003;30667;43.614;1.442;2023-07-24T11:40:08;6.75;6.00;2.75
44933;PMS3003;30667;43.614;1.442;2023-07-24T11:42:38;6.80;5.80;2.20
44933;PMS3003;30667;43.614;1.442;2023-07-24T11:45:05;6.60;6.00;2.60
44933;PMS3003;30667;43.614;1.442;2023-07-24T11:47:47;4.20;4.20;1.60
44933;PMS3003;30667;43.614;1.442;2023-07-24T11:50:14;5.80;5.80;3.00
44933;PMS3003;30667;43.614;1.442;2023-07-24T11:52:41;6.20;6.00;2.00
44933;PMS3003;30667;43.614;1.442;2023-07-24T11:55:11;7.80;6.60;3.00
44933;PMS3003;30667;43.614;1.442;2023-07-24T11:57:57;6.40;6.40;3.00
44933;PMS3003;30667;43.614;1.442;2023-07-24T12:00:26;8.00;6.40;2.40
44933;PMS3003;30667;43.614;1.442;2023-07-24T12:02:53;6.00;5.40;2.00
44933;PMS3003;30667;43.614;1.442;2023-07-24T12:05:23;4.60;4.40;1.60
44933;PMS3003;30667;43.614;1.442;2023-07-24T12:07:49;6.75;5.25;2.25
44933;PMS3003;30667;43.614;1.442;2023-07-24T12:10:24;7.00;5.25;2.00
44933;PMS3003;30667;43.614;1.442;2023-07-24T12:12:52;4.20;4.20;2.00
44933;PMS3003;30667;43.614;1.442;2023-07-24T12:15:18;5.20;5.20;2.00
44933;PMS3003;30667;43.614;1.442;2023-07-24T12:17:44;6.00;5.00;2.25
44933;PMS3003;30667;43.614;1.442;2023-07-24T12:20:09;6.25;5.50;2.50
44933;PMS3003;30667;43.614;1.442;2023-07-24T12:22:36;6.40;6.20;3.00
44933;PMS3003;30667;43.614;1.442;2023-07-24T12:25:02;5.20;4.80;2.00
44933;PMS3003;30667;43.614;1.442;2023-07-24T12:27:29;5.20;5.00;2.00
44933;PMS3003;30667;43.614;1.442;2023-07-24T12:29:54;5.50;5.00;1.00
44933;PMS3003;30667;43.614;1.442;2023-07-24T12:32:20;5.25;5.00;2.25
44933;PMS3003;30667;43.614;1.442;2023-07-24T12:34:47;6.80;5.80;2.20
44933;PMS3003;30667;43.614;1.442;2023-07-24T12:37:14;5.00;5.00;1.00
44933;PMS3003;30667;43.614;1.442;2023-07-24T12:39:39;6.00;5.25;2.00
44933;PMS3003;30667;43.614;1.442;2023-07-24T12:42:05;6.25;5.75;2.00
44933;PMS3003;30667;43.614;1.442;2023-07-24T12:44:31;4.60;4.60;2.00
44933;PMS3003;30667;43.614;1.442;2023-07-24T12:46:56;5.75;5.75;2.00
44933;PMS3003;30667;43.614;1.442;2023-07-24T12:49:21;6.00;5.00;2.00
44933;PMS3003;30667;43.614;1.442;2023-07-24T12:51:47;6.00;5.00;2.00
44933;PMS3003;30667;43.614;1.442;2023-07-24T12:54:12;5.00;5.00;2.00
44933;PMS3003;30667;43.614;1.442;2023-07-24T12:56:38;5.00;5.00;2.00
44933;PMS3003;30667;43.614;1.442;2023-07-24T12:59:03;6.00;5.00;2.00
44933;PMS3003;30667;43.614;1.442;2023-07-24T13:01:29;4.75;4.75;2.00
44933;PMS3003;30667;43.614;1.442;2023-07-24T13:03:54;5.25;5.00;1.75
44933;PMS3003;30667;43.614;1.442;2023-07-24T13:06:20;6.00;5.00;2.00
44933;PMS3003;30667;43.614;1.442;2023-07-24T13:08:45;5.00;4.80;1.60
44933;PMS3003;30667;43.614;1.442;2023-07-24T13:11:11;5.75;5.75;2.00
44933;PMS3003;30667;43.614;1.442;2023-07-24T13:13:36;6.00;5.25;2.25
44933;PMS3003;30667;43.614;1.442;2023-07-24T13:16:02;4.00;4.00;1.00
44933;PMS3003;30667;43.614;1.442;2023-07-24T13:18:28;5.00;4.20;1.20
44933;PMS3003;30667;43.614;1.442;2023-07-24T13:20:54;6.80;5.00;1.60
44933;PMS3003;30667;43.614;1.442;2023-07-24T13:23:22;5.50;5.50;2.00
44933;PMS3003;30667;43.614;1.442;2023-07-24T13:25:47;4.20;4.20;1.40
44933;PMS3003;30667;43.614;1.442;2023-07-24T13:28:13;3.00;3.00;1.00
44933;PMS3003;30667;43.614;1.442;2023-07-24T13:30:38;4.00;3.50;1.00
44933;PMS3003;30667;43.614;1.442;2023-07-24T13:33:03;5.25;4.00;1.00
44933;PMS3003;30667;43.614;1.442;2023-07-24T13:35:29;4.00;3.75;1.00
44933;PMS3003;30667;43.614;1.442;2023-07-24T13:37:54;4.00;4.00;1.00
44933;PMS3003;30667;43.614;1.442;2023-07-24T13:40:19;4.25;4.00;1.00
44933;PMS3003;30667;43.614;1.442;2023-07-24T13:42:45;5.50;4.00;1.50
44933;PMS3003;30667;43.614;1.442;2023-07-24T13:45:10;3.50;3.50;1.50
44933;PMS3003;30667;43.614;1.442;2023-07-24T13:47:35;4.00;4.00;2.00
44933;PMS3003;30667;43.614;1.442;2023-07-24T13:50:01;4.00;3.50;1.00
44933;PMS3003;30667;43.614;1.442;2023-07-24T13:52:28;4.40;4.00;2.00
44933;PMS3003;30667;43.614;1.442;2023-07-24T13:54:54;4.60;3.80;1.20
44933;PMS3003;30667;43.614;1.442;2023-07-24T13:57:20;4.00;4.00;2.00
44933;PMS3003;30667;43.614;1.442;2023-07-24T13:59:45;3.25;3.25;1.25
44933;PMS3003;30667;43.614;1.442;2023-07-24T14:02:10;5.00;5.00;2.00
44933;PMS3003;30667;43.614;1.442;2023-07-24T14:04:37;4.00;4.00;2.00
44933;PMS3003;30667;43.614;1.442;2023-07-24T14:07:03;3.00;3.00;1.00
44933;PMS3003;30667;43.614;1.442;2023-07-24T14:09:28;4.00;4.00;1.00
44933;PMS3003;30667;43.614;1.442;2023-07-24T14:11:53;4.50;4.00;1.00
44933;PMS3003;30667;43.614;1.442;2023-07-24T14:14:19;4.75;3.25;1.00
44933;PMS3003;30667;43.614;1.442;2023-07-24T14:16:44;2.00;2.00;0.00